sensor_id;sensor_type;location;lat;lon;timestamp;pressure;altitude;pressure_sealevel;temperature;humidity
73936;BME280;62287;50.858;0.252;2023-03-24T00:00:02;99545.55;;;15.26;38.94
73936;BME280;62287;50.858;0.252;2023-03-24T00:00:34;99550.46;;;15.39;38.83
73936;BME280;62287;50.858;0.252;2023-03-24T00:01:06;99543.77;;;15.21;38.92
73936;BME280;62287;50.858;0.252;2023-03-24T00:01:37;99544.02;;;15.22;38.99
73936;BME280;62287;50.858;0.252;2023-03-24T00:02:08;99545.13;;;15.29;38.93
73936;BME280;62287;50.858;0.252;2023-03-24T00:02:41;99546.12;;;15.39;38.83
73936;BME280;62287;50.858;0.252;2023-03-24T00:03:12;99558.78;;;15.15;39.04
73936;BME280;62287;50.858;0.252;2023-03-24T00:03:44;99550.88;;;15.45;38.76
73936;BME280;62287;50.858;0.252;2023-03-24T00:04:15;99550.85;;;15.38;38.74
73936;BME280;62287;50.858;0.252;2023-03-24T00:04:47;99560.31;;;15.36;38.84
73936;BME280;62287;50.858;0.252;2023-03-24T00:05:20;99552.05;;;15.71;38.62
73936;BME280;62287;50.858;0.252;2023-03-24T00:05:55;99549.22;;;15.59;38.62
73936;BME280;62287;50.858;0.252;2023-03-24T00:06:26;99552.36;;;15.24;38.85
73936;BME280;62287;50.858;0.252;2023-03-24T00:06:57;99555.36;;;15.99;38.58
73936;BME280;62287;50.858;0.252;2023-03-24T00:07:27;99546.83;;;15.53;38.67
73936;BME280;62287;50.858;0.252;2023-03-24T00:07:58;99546.97;;;15.51;38.67
73936;BME280;62287;50.858;0.252;2023-03-24T00:08:31;99548.01;;;15.54;38.71
73936;BME280;62287;50.858;0.252;2023-03-24T00:09:02;99547.92;;;15.49;38.59
73936;BME280;62287;50.858;0.252;2023-03-24T00:09:33;99542.33;;;15.55;38.61
73936;BME280;62287;50.858;0.252;2023-03-24T00:10:06;99551.99;;;15.83;38.68
73936;BME280;62287;50.858;0.252;2023-03-24T00:10:38;99545.82;;;15.40;38.81
73936;BME280;62287;50.858;0.252;2023-03-24T00:11:10;99548.54;;;15.18;38.96
73936;BME280;62287;50.858;0.252;2023-03-24T00:11:41;99545.60;;;15.46;38.83
73936;BME280;62287;50.858;0.252;2023-03-24T00:12:13;99548.78;;;14.92;39.25
73936;BME280;62287;50.858;0.252;2023-03-24T00:12:45;99543.97;;;15.38;38.92
73936;BME280;62287;50.858;0.252;2023-03-24T00:13:16;99549.74;;;15.07;39.10
73936;BME280;62287;50.858;0.252;2023-03-24T00:13:47;99558.50;;;14.72;39.10
73936;BME280;62287;50.858;0.252;2023-03-24T00:14:18;99545.61;;;14.98;39.15
73936;BME280;62287;50.858;0.252;2023-03-24T00:14:49;99552.46;;;15.17;38.97
73936;BME280;62287;50.858;0.252;2023-03-24T00:15:20;99541.86;;;15.45;38.80
73936;BME280;62287;50.858;0.252;2023-03-24T00:15:51;99555.41;;;14.91;39.13
73936;BME280;62287;50.858;0.252;2023-03-24T00:16:23;99552.76;;;15.58;38.99
73936;BME280;62287;50.858;0.252;2023-03-24T00:16:54;99548.92;;;15.14;38.98
73936;BME280;62287;50.858;0.252;2023-03-24T00:17:25;99561.30;;;14.78;39.01
73936;BME280;62287;50.858;0.252;2023-03-24T00:17:56;99556.23;;;15.32;38.85
73936;BME280;62287;50.858;0.252;2023-03-24T00:18:27;99557.78;;;15.59;38.93
73936;BME280;62287;50.858;0.252;2023-03-24T00:18:58;99559.79;;;15.29;38.86
73936;BME280;62287;50.858;0.252;2023-03-24T00:19:29;99557.01;;;15.06;39.08
73936;BME280;62287;50.858;0.252;2023-03-24T00:20:01;99559.46;;;14.98;39.15
73936;BME280;62287;50.858;0.252;2023-03-24T00:20:33;99563.63;;;15.54;39.01
73936;BME280;62287;50.858;0.252;2023-03-24T00:21:06;99562.84;;;15.54;38.93
73936;BME280;62287;50.858;0.252;2023-03-24T00:21:38;99552.56;;;15.10;38.98
73936;BME280;62287;50.858;0.252;2023-03-24T00:22:11;99563.27;;;14.76;39.00
73936;BME280;62287;50.858;0.252;2023-03-24T00:22:45;99566.43;;;15.38;38.81
73936;BME280;62287;50.858;0.252;2023-03-24T00:23:17;99562.68;;;15.39;38.73
73936;BME280;62287;50.858;0.252;2023-03-24T00:23:48;99558.96;;;15.42;39.01
73936;BME280;62287;50.858;0.252;2023-03-24T00:24:19;99565.36;;;15.26;38.88
73936;BME280;62287;50.858;0.252;2023-03-24T00:24:50;99571.19;;;15.59;38.92
73936;BME280;62287;50.858;0.252;2023-03-24T00:25:24;99554.49;;;15.87;38.93
73936;BME280;62287;50.858;0.252;2023-03-24T00:26:00;99565.93;;;14.84;39.26
73936;BME280;62287;50.858;0.252;2023-03-24T00:26:33;99565.13;;;14.69;39.40
73936;BME280;62287;50.858;0.252;2023-03-24T00:27:04;99569.18;;;14.90;39.25
73936;BME280;62287;50.858;0.252;2023-03-24T00:27:35;99565.71;;;14.92;39.21
73936;BME280;62287;50.858;0.252;2023-03-24T00:28:07;99564.68;;;15.22;39.24
73936;BME280;62287;50.858;0.252;2023-03-24T00:28:38;99561.29;;;15.19;39.27
73936;BME280;62287;50.858;0.252;2023-03-24T00:29:10;99562.29;;;14.77;39.23
73936;BME280;62287;50.858;0.252;2023-03-24T00:29:41;99568.28;;;14.49;39.64
73936;BME280;62287;50.858;0.252;2023-03-24T00:30:12;99567.57;;;14.55;39.61
73936;BME280;62287;50.858;0.252;2023-03-24T00:30:44;99574.94;;;14.74;39.46
73936;BME280;62287;50.858;0.252;2023-03-24T00:31:16;99574.94;;;14.96;39.18
73936;BME280;62287;50.858;0.252;2023-03-24T00:31:47;99576.20;;;15.41;39.15
73936;BME280;62287;50.858;0.252;2023-03-24T00:32:18;99567.20;;;14.96;39.27
73936;BME280;62287;50.858;0.252;2023-03-24T00:32:49;99576.92;;;14.40;39.65
73936;BME280;62287;50.858;0.252;2023-03-24T00:33:20;99573.17;;;15.07;39.23
73936;BME280;62287;50.858;0.252;2023-03-24T00:33:51;99575.44;;;14.96;39.20
73936;BME280;62287;50.858;0.252;2023-03-24T00:34:22;99575.49;;;15.43;39.09
73936;BME280;62287;50.858;0.252;2023-03-24T00:34:53;99571.00;;;15.14;39.33
73936;BME280;62287;50.858;0.252;2023-03-24T00:35:24;99579.14;;;15.35;39.15
73936;BME280;62287;50.858;0.252;2023-03-24T00:35:55;99573.41;;;14.98;39.13
73936;BME280;62287;50.858;0.252;2023-03-24T00:36:26;99577.71;;;15.24;38.98
73936;BME280;62287;50.858;0.252;2023-03-24T00:36:57;99581.65;;;15.15;38.99
73936;BME280;62287;50.858;0.252;2023-03-24T00:37:28;99586.92;;;15.38;38.87
73936;BME280;62287;50.858;0.252;2023-03-24T00:37:59;99579.83;;;15.26;38.96
73936;BME280;62287;50.858;0.252;2023-03-24T00:38:30;99578.20;;;14.81;39.31
73936;BME280;62287;50.858;0.252;2023-03-24T00:39:02;99579.00;;;15.19;38.98
73936;BME280;62287;50.858;0.252;2023-03-24T00:39:34;99580.01;;;15.40;39.04
73936;BME280;62287;50.858;0.252;2023-03-24T00:40:07;99583.18;;;15.05;39.02
73936;BME280;62287;50.858;0.252;2023-03-24T00:40:43;99583.30;;;15.20;39.30
73936;BME280;62287;50.858;0.252;2023-03-24T00:41:15;99586.40;;;14.92;39.28
73936;BME280;62287;50.858;0.252;2023-03-24T00:41:47;99578.46;;;14.66;39.49
73936;BME280;62287;50.858;0.252;2023-03-24T00:42:18;99584.72;;;15.15;39.40
73936;BME280;62287;50.858;0.252;2023-03-24T00:42:49;99584.71;;;14.72;39.54
73936;BME280;62287;50.858;0.252;2023-03-24T00:43:20;99587.55;;;14.59;39.61
73936;BME280;62287;50.858;0.252;2023-03-24T00:43:54;99592.08;;;15.05;39.52
73936;BME280;62287;50.858;0.252;2023-03-24T00:44:25;99581.58;;;14.76;39.55
73936;BME280;62287;50.858;0.252;2023-03-24T00:44:57;99586.93;;;14.83;39.48
73936;BME280;62287;50.858;0.252;2023-03-24T00:45:28;99572.97;;;15.17;39.56
73936;BME280;62287;50.858;0.252;2023-03-24T00:45:59;99583.84;;;14.81;39.45
73936;BME280;62287;50.858;0.252;2023-03-24T00:46:31;99582.81;;;15.08;39.47
73936;BME280;62287;50.858;0.252;2023-03-24T00:47:02;99581.75;;;14.73;39.53
73936;BME280;62287;50.858;0.252;2023-03-24T00:47:33;99588.61;;;14.64;39.51
73936;BME280;62287;50.858;0.252;2023-03-24T00:48:05;99584.01;;;15.06;39.43
73936;BME280;62287;50.858;0.252;2023-03-24T00:48:37;99586.27;;;14.74;39.37
73936;BME280;62287;50.858;0.252;2023-03-24T00:49:10;99590.92;;;14.88;39.26
73936;BME280;62287;50.858;0.252;2023-03-24T00:49:42;99597.70;;;14.84;39.46
73936;BME280;62287;50.858;0.252;2023-03-24T00:50:19;99590.22;;;14.38;39.50
73936;BME280;62287;50.858;0.252;2023-03-24T00:50:51;99599.56;;;14.58;39.33
73936;BME280;62287;50.858;0.252;2023-03-24T00:51:22;99591.44;;;14.87;39.41
73936;BME280;62287;50.858;0.252;2023-03-24T00:51:53;99595.27;;;14.74;39.22
73936;BME280;62287;50.858;0.252;2023-03-24T00:52:24;99598.49;;;15.02;39.02
73936;BME280;62287;50.858;0.252;2023-03-24T00:52:55;99596.95;;;14.99;39.26
73936;BME280;62287;50.858;0.252;2023-03-24T00:53:26;99586.29;;;14.80;39.23
73936;BME280;62287;50.858;0.252;2023-03-24T00:53:57;99595.82;;;14.96;39.31
73936;BME280;62287;50.858;0.252;2023-03-24T00:54:28;99592.61;;;14.98;39.34
73936;BME280;62287;50.858;0.252;2023-03-24T00:55:00;99595.24;;;14.51;39.40
73936;BME280;62287;50.858;0.252;2023-03-24T00:55:32;99586.92;;;14.64;39.40
73936;BME280;62287;50.858;0.252;2023-03-24T00:56:03;99591.16;;;14.97;39.34
73936;BME280;62287;50.858;0.252;2023-03-24T00:56:37;99596.60;;;15.05;39.34
73936;BME280;62287;50.858;0.252;2023-03-24T00:57:08;99591.60;;;14.86;39.31
73936;BME280;62287;50.858;0.252;2023-03-24T00:57:39;99596.79;;;15.07;39.30
73936;BME280;62287;50.858;0.252;2023-03-24T00:58:10;99593.91;;;14.64;39.48
73936;BME280;62287;50.858;0.252;2023-03-24T00:58:41;99591.31;;;15.00;39.50
73936;BME280;62287;50.858;0.252;2023-03-24T00:59:12;99599.63;;;14.41;39.72
73936;BME280;62287;50.858;0.252;2023-03-24T00:59:43;99598.18;;;14.70;39.38
73936;BME280;62287;50.858;0.252;2023-03-24T01:00:16;99597.69;;;14.70;39.34
73936;BME280;62287;50.858;0.252;2023-03-24T01:00:49;99596.93;;;14.74;39.29
73936;BME280;62287;50.858;0.252;2023-03-24T01:01:20;99599.88;;;14.76;39.36
73936;BME280;62287;50.858;0.252;2023-03-24T01:01:52;99599.35;;;14.68;39.49
73936;BME280;62287;50.858;0.252;2023-03-24T01:02:25;99601.05;;;14.70;39.74
73936;BME280;62287;50.858;0.252;2023-03-24T01:02:57;99601.75;;;14.71;39.68
73936;BME280;62287;50.858;0.252;2023-03-24T01:03:28;99600.11;;;14.75;39.64
73936;BME280;62287;50.858;0.252;2023-03-24T01:03:59;99599.60;;;15.09;39.37
73936;BME280;62287;50.858;0.252;2023-03-24T01:04:30;99598.28;;;14.91;39.39
73936;BME280;62287;50.858;0.252;2023-03-24T01:05:01;99600.29;;;14.70;39.67
73936;BME280;62287;50.858;0.252;2023-03-24T01:05:32;99599.03;;;14.26;39.71
73936;BME280;62287;50.858;0.252;2023-03-24T01:06:03;99594.99;;;14.78;39.64
73936;BME280;62287;50.858;0.252;2023-03-24T01:06:35;99601.89;;;14.63;39.38
73936;BME280;62287;50.858;0.252;2023-03-24T01:07:07;99600.43;;;14.78;39.57
73936;BME280;62287;50.858;0.252;2023-03-24T01:07:38;99602.47;;;14.95;39.51
73936;BME280;62287;50.858;0.252;2023-03-24T01:08:09;99609.06;;;14.67;39.41
73936;BME280;62287;50.858;0.252;2023-03-24T01:08:40;99606.78;;;14.51;39.54
73936;BME280;62287;50.858;0.252;2023-03-24T01:09:10;99607.67;;;14.89;39.55
73936;BME280;62287;50.858;0.252;2023-03-24T01:09:41;99600.63;;;14.95;39.60
73936;BME280;62287;50.858;0.252;2023-03-24T01:10:14;99605.67;;;14.44;39.58
73936;BME280;62287;50.858;0.252;2023-03-24T01:10:47;99604.02;;;14.86;39.44
73936;BME280;62287;50.858;0.252;2023-03-24T01:11:19;99600.81;;;14.82;39.47
73936;BME280;62287;50.858;0.252;2023-03-24T01:11:50;99603.67;;;14.79;39.53
73936;BME280;62287;50.858;0.252;2023-03-24T01:12:22;99601.02;;;14.71;39.59
73936;BME280;62287;50.858;0.252;2023-03-24T01:12:56;99602.14;;;14.62;39.80
73936;BME280;62287;50.858;0.252;2023-03-24T01:13:28;99601.84;;;14.39;39.86
73936;BME280;62287;50.858;0.252;2023-03-24T01:13:59;99600.50;;;14.56;39.85
73936;BME280;62287;50.858;0.252;2023-03-24T01:14:30;99601.87;;;14.20;39.74
73936;BME280;62287;50.858;0.252;2023-03-24T01:15:05;99602.16;;;14.23;39.77
73936;BME280;62287;50.858;0.252;2023-03-24T01:15:36;99604.68;;;14.60;39.81
73936;BME280;62287;50.858;0.252;2023-03-24T01:16:08;99606.74;;;14.34;39.97
73936;BME280;62287;50.858;0.252;2023-03-24T01:16:39;99604.97;;;14.57;39.90
73936;BME280;62287;50.858;0.252;2023-03-24T01:17:10;99605.03;;;14.63;39.83
73936;BME280;62287;50.858;0.252;2023-03-24T01:17:42;99606.39;;;14.20;39.85
73936;BME280;62287;50.858;0.252;2023-03-24T01:18:13;99609.16;;;14.39;39.70
73936;BME280;62287;50.858;0.252;2023-03-24T01:18:45;99606.15;;;14.56;39.53
73936;BME280;62287;50.858;0.252;2023-03-24T01:19:15;99606.92;;;14.98;39.35
73936;BME280;62287;50.858;0.252;2023-03-24T01:19:47;99604.48;;;14.39;39.92
73936;BME280;62287;50.858;0.252;2023-03-24T01:20:18;99607.39;;;14.54;39.86
73936;BME280;62287;50.858;0.252;2023-03-24T01:20:50;99607.29;;;14.47;39.86
73936;BME280;62287;50.858;0.252;2023-03-24T01:21:21;99608.12;;;14.23;39.80
73936;BME280;62287;50.858;0.252;2023-03-24T01:21:52;99604.98;;;14.42;39.70
73936;BME280;62287;50.858;0.252;2023-03-24T01:22:27;99611.49;;;14.83;39.65
73936;BME280;62287;50.858;0.252;2023-03-24T01:22:58;99612.29;;;14.97;39.57
73936;BME280;62287;50.858;0.252;2023-03-24T01:23:29;99613.70;;;14.88;39.55
73936;BME280;62287;50.858;0.252;2023-03-24T01:24:00;99613.32;;;14.57;39.59
73936;BME280;62287;50.858;0.252;2023-03-24T01:24:32;99615.32;;;14.57;39.60
73936;BME280;62287;50.858;0.252;2023-03-24T01:25:03;99615.40;;;14.28;39.77
73936;BME280;62287;50.858;0.252;2023-03-24T01:25:35;99610.36;;;14.29;39.84
73936;BME280;62287;50.858;0.252;2023-03-24T01:26:09;99617.65;;;14.19;39.87
73936;BME280;62287;50.858;0.252;2023-03-24T01:26:40;99614.79;;;14.43;40.07
73936;BME280;62287;50.858;0.252;2023-03-24T01:27:11;99614.85;;;14.08;40.08
73936;BME280;62287;50.858;0.252;2023-03-24T01:27:42;99615.78;;;14.04;40.06
73936;BME280;62287;50.858;0.252;2023-03-24T01:28:15;99614.46;;;14.27;39.90
73936;BME280;62287;50.858;0.252;2023-03-24T01:28:46;99613.18;;;14.25;39.93
73936;BME280;62287;50.858;0.252;2023-03-24T01:29:17;99619.34;;;14.52;40.03
73936;BME280;62287;50.858;0.252;2023-03-24T01:29:48;99611.21;;;14.37;40.08
73936;BME280;62287;50.858;0.252;2023-03-24T01:30:22;99615.52;;;14.67;39.99
73936;BME280;62287;50.858;0.252;2023-03-24T01:30:53;99617.97;;;14.27;39.91
73936;BME280;62287;50.858;0.252;2023-03-24T01:31:24;99619.73;;;14.07;40.11
73936;BME280;62287;50.858;0.252;2023-03-24T01:31:55;99614.30;;;14.49;40.14
73936;BME280;62287;50.858;0.252;2023-03-24T01:32:26;99618.21;;;14.18;40.02
73936;BME280;62287;50.858;0.252;2023-03-24T01:32:57;99620.29;;;14.51;39.97
73936;BME280;62287;50.858;0.252;2023-03-24T01:33:29;99620.16;;;14.24;39.97
73936;BME280;62287;50.858;0.252;2023-03-24T01:34:00;99621.57;;;14.27;39.96
73936;BME280;62287;50.858;0.252;2023-03-24T01:34:32;99624.21;;;14.80;40.01
73936;BME280;62287;50.858;0.252;2023-03-24T01:35:04;99623.07;;;14.43;40.14
73936;BME280;62287;50.858;0.252;2023-03-24T01:35:35;99628.85;;;14.39;40.06
73936;BME280;62287;50.858;0.252;2023-03-24T01:36:07;99629.07;;;14.57;40.09
73936;BME280;62287;50.858;0.252;2023-03-24T01:36:38;99631.86;;;14.17;39.97
73936;BME280;62287;50.858;0.252;2023-03-24T01:37:10;99630.51;;;14.47;40.09
73936;BME280;62287;50.858;0.252;2023-03-24T01:37:41;99630.68;;;13.70;40.44
73936;BME280;62287;50.858;0.252;2023-03-24T01:38:13;99636.16;;;14.24;40.29
73936;BME280;62287;50.858;0.252;2023-03-24T01:38:44;99633.66;;;14.30;40.28
73936;BME280;62287;50.858;0.252;2023-03-24T01:39:15;99633.72;;;14.48;40.11
73936;BME280;62287;50.858;0.252;2023-03-24T01:39:46;99633.00;;;14.03;40.20
73936;BME280;62287;50.858;0.252;2023-03-24T01:40:20;99629.57;;;14.30;40.27
73936;BME280;62287;50.858;0.252;2023-03-24T01:40:51;99631.00;;;14.36;40.24
73936;BME280;62287;50.858;0.252;2023-03-24T01:41:22;99629.29;;;14.05;40.16
73936;BME280;62287;50.858;0.252;2023-03-24T01:41:53;99632.07;;;14.35;39.98
73936;BME280;62287;50.858;0.252;2023-03-24T01:42:26;99628.38;;;14.21;40.01
73936;BME280;62287;50.858;0.252;2023-03-24T01:42:58;99634.59;;;14.89;39.73
73936;BME280;62287;50.858;0.252;2023-03-24T01:43:32;99631.58;;;14.94;39.71
73936;BME280;62287;50.858;0.252;2023-03-24T01:44:25;99631.28;;;14.64;39.89
73936;BME280;62287;50.858;0.252;2023-03-24T01:45:00;99635.52;;;14.75;39.87
73936;BME280;62287;50.858;0.252;2023-03-24T01:45:43;99632.69;;;14.42;39.82
73936;BME280;62287;50.858;0.252;2023-03-24T01:46:17;99630.03;;;14.11;40.07
73936;BME280;62287;50.858;0.252;2023-03-24T01:46:49;99633.87;;;14.40;40.14
73936;BME280;62287;50.858;0.252;2023-03-24T01:47:20;99638.86;;;14.30;39.85
73936;BME280;62287;50.858;0.252;2023-03-24T01:47:51;99638.71;;;14.48;39.63
73936;BME280;62287;50.858;0.252;2023-03-24T01:48:25;99632.61;;;14.67;39.71
73936;BME280;62287;50.858;0.252;2023-03-24T01:49:00;99635.00;;;14.73;39.72
73936;BME280;62287;50.858;0.252;2023-03-24T01:49:35;99636.21;;;14.27;39.86
73936;BME280;62287;50.858;0.252;2023-03-24T01:50:06;99634.34;;;14.62;39.83
73936;BME280;62287;50.858;0.252;2023-03-24T01:50:38;99630.76;;;15.15;39.72
73936;BME280;62287;50.858;0.252;2023-03-24T01:51:13;99636.48;;;14.44;39.89
73936;BME280;62287;50.858;0.252;2023-03-24T01:51:48;99635.79;;;14.54;39.89
73936;BME280;62287;50.858;0.252;2023-03-24T01:52:23;99636.01;;;14.38;40.03
73936;BME280;62287;50.858;0.252;2023-03-24T01:52:54;99637.08;;;14.11;40.31
73936;BME280;62287;50.858;0.252;2023-03-24T01:53:26;99638.92;;;14.00;40.45
73936;BME280;62287;50.858;0.252;2023-03-24T01:54:00;99639.52;;;13.84;40.24
73936;BME280;62287;50.858;0.252;2023-03-24T01:54:35;99644.17;;;14.31;40.14
73936;BME280;62287;50.858;0.252;2023-03-24T01:55:11;99642.63;;;14.54;39.93
73936;BME280;62287;50.858;0.252;2023-03-24T01:55:46;99642.88;;;14.66;39.82
73936;BME280;62287;50.858;0.252;2023-03-24T01:56:18;99641.99;;;14.37;40.11
73936;BME280;62287;50.858;0.252;2023-03-24T01:56:52;99642.56;;;13.99;40.13
73936;BME280;62287;50.858;0.252;2023-03-24T01:57:28;99643.43;;;13.88;40.26
73936;BME280;62287;50.858;0.252;2023-03-24T01:58:01;99643.25;;;14.66;40.30
73936;BME280;62287;50.858;0.252;2023-03-24T01:58:34;99640.90;;;14.30;40.25
73936;BME280;62287;50.858;0.252;2023-03-24T01:59:09;99645.84;;;14.81;39.97
73936;BME280;62287;50.858;0.252;2023-03-24T01:59:44;99647.08;;;14.29;40.20
73936;BME280;62287;50.858;0.252;2023-03-24T02:00:18;99645.79;;;14.44;40.23
73936;BME280;62287;50.858;0.252;2023-03-24T02:00:49;99648.31;;;14.27;40.32
73936;BME280;62287;50.858;0.252;2023-03-24T02:01:21;99644.24;;;14.22;40.30
73936;BME280;62287;50.858;0.252;2023-03-24T02:01:52;99643.53;;;14.27;40.31
73936;BME280;62287;50.858;0.252;2023-03-24T02:02:24;99646.86;;;14.37;40.27
73936;BME280;62287;50.858;0.252;2023-03-24T02:02:58;99640.51;;;14.22;40.26
73936;BME280;62287;50.858;0.252;2023-03-24T02:03:31;99640.49;;;14.62;40.29
73936;BME280;62287;50.858;0.252;2023-03-24T02:04:05;99645.42;;;13.94;40.36
73936;BME280;62287;50.858;0.252;2023-03-24T02:04:40;99646.07;;;14.34;40.44
73936;BME280;62287;50.858;0.252;2023-03-24T02:05:13;99649.08;;;14.10;40.45
73936;BME280;62287;50.858;0.252;2023-03-24T02:05:46;99653.09;;;14.35;40.40
73936;BME280;62287;50.858;0.252;2023-03-24T02:06:18;99649.69;;;14.35;40.30
73936;BME280;62287;50.858;0.252;2023-03-24T02:06:49;99650.49;;;14.55;40.20
73936;BME280;62287;50.858;0.252;2023-03-24T02:07:27;99647.03;;;14.40;40.33
73936;BME280;62287;50.858;0.252;2023-03-24T02:08:05;99652.95;;;14.14;40.56
73936;BME280;62287;50.858;0.252;2023-03-24T02:08:41;99650.59;;;14.51;40.48
73936;BME280;62287;50.858;0.252;2023-03-24T02:09:15;99649.94;;;14.29;40.37
73936;BME280;62287;50.858;0.252;2023-03-24T02:09:46;99651.93;;;14.23;40.40
73936;BME280;62287;50.858;0.252;2023-03-24T02:10:19;99653.14;;;14.25;40.41
73936;BME280;62287;50.858;0.252;2023-03-24T02:10:51;99653.70;;;14.21;40.41
73936;BME280;62287;50.858;0.252;2023-03-24T02:11:25;99653.84;;;14.09;40.66
73936;BME280;62287;50.858;0.252;2023-03-24T02:11:57;99657.43;;;13.58;40.70
73936;BME280;62287;50.858;0.252;2023-03-24T02:12:29;99659.49;;;13.43;40.92
73936;BME280;62287;50.858;0.252;2023-03-24T02:13:01;99656.13;;;14.06;40.82
73936;BME280;62287;50.858;0.252;2023-03-24T02:13:33;99657.78;;;13.92;40.84
73936;BME280;62287;50.858;0.252;2023-03-24T02:14:05;99649.68;;;14.02;40.78
73936;BME280;62287;50.858;0.252;2023-03-24T02:14:36;99654.53;;;14.17;40.62
73936;BME280;62287;50.858;0.252;2023-03-24T02:15:09;99656.30;;;14.06;40.85
73936;BME280;62287;50.858;0.252;2023-03-24T02:15:44;99656.63;;;14.02;40.95
73936;BME280;62287;50.858;0.252;2023-03-24T02:16:29;99655.78;;;13.82;40.98
73936;BME280;62287;50.858;0.252;2023-03-24T02:17:15;99658.21;;;13.93;41.14
73936;BME280;62287;50.858;0.252;2023-03-24T02:17:57;99658.54;;;13.82;41.14
73936;BME280;62287;50.858;0.252;2023-03-24T02:18:36;99658.26;;;14.09;41.28
73936;BME280;62287;50.858;0.252;2023-03-24T02:19:31;99665.89;;;14.39;41.06
73936;BME280;62287;50.858;0.252;2023-03-24T02:20:29;99664.22;;;14.09;40.97
73936;BME280;62287;50.858;0.252;2023-03-24T02:21:28;99668.49;;;14.36;40.83
73936;BME280;62287;50.858;0.252;2023-03-24T02:22:21;99662.16;;;14.27;40.68
73936;BME280;62287;50.858;0.252;2023-03-24T02:23:14;99667.15;;;13.97;41.02
73936;BME280;62287;50.858;0.252;2023-03-24T02:24:05;99662.97;;;13.61;41.06
73936;BME280;62287;50.858;0.252;2023-03-24T02:24:57;99666.88;;;14.18;40.83
73936;BME280;62287;50.858;0.252;2023-03-24T02:26:17;99669.32;;;14.15;40.85
73936;BME280;62287;50.858;0.252;2023-03-24T02:27:03;99668.53;;;14.60;40.73
73936;BME280;62287;50.858;0.252;2023-03-24T02:27:51;99672.52;;;14.12;40.69
73936;BME280;62287;50.858;0.252;2023-03-24T02:28:34;99669.31;;;14.33;40.88
73936;BME280;62287;50.858;0.252;2023-03-24T02:29:27;99678.56;;;14.17;40.68
73936;BME280;62287;50.858;0.252;2023-03-24T02:30:15;99676.92;;;14.41;40.79
73936;BME280;62287;50.858;0.252;2023-03-24T02:31:05;99680.31;;;14.19;40.66
73936;BME280;62287;50.858;0.252;2023-03-24T02:31:56;99676.98;;;14.25;40.61
73936;BME280;62287;50.858;0.252;2023-03-24T02:33:04;99674.15;;;14.13;40.60
73936;BME280;62287;50.858;0.252;2023-03-24T02:33:57;99677.23;;;14.09;40.71
73936;BME280;62287;50.858;0.252;2023-03-24T02:34:55;99675.01;;;14.12;40.64
73936;BME280;62287;50.858;0.252;2023-03-24T02:38:54;99673.62;;;14.28;40.89
73936;BME280;62287;50.858;0.252;2023-03-24T02:40:07;99670.31;;;13.88;40.66
73936;BME280;62287;50.858;0.252;2023-03-24T02:40:45;99673.60;;;13.82;40.86
73936;BME280;62287;50.858;0.252;2023-03-24T02:41:23;99672.35;;;14.58;40.50
73936;BME280;62287;50.858;0.252;2023-03-24T02:42:03;99678.44;;;14.63;40.56
73936;BME280;62287;50.858;0.252;2023-03-24T02:42:44;99672.63;;;14.18;40.26
73936;BME280;62287;50.858;0.252;2023-03-24T02:43:29;99677.10;;;14.40;40.17
73936;BME280;62287;50.858;0.252;2023-03-24T02:44:09;99680.37;;;14.34;40.32
73936;BME280;62287;50.858;0.252;2023-03-24T02:44:53;99679.76;;;14.47;40.58
73936;BME280;62287;50.858;0.252;2023-03-24T02:45:34;99681.50;;;14.45;40.22
73936;BME280;62287;50.858;0.252;2023-03-24T02:46:11;99678.08;;;14.66;39.99
73936;BME280;62287;50.858;0.252;2023-03-24T02:46:49;99681.48;;;14.01;40.23
73936;BME280;62287;50.858;0.252;2023-03-24T02:47:26;99685.02;;;14.29;40.31
73936;BME280;62287;50.858;0.252;2023-03-24T02:48:10;99685.18;;;14.59;40.42
73936;BME280;62287;50.858;0.252;2023-03-24T02:48:55;99682.29;;;14.78;40.13
73936;BME280;62287;50.858;0.252;2023-03-24T02:49:32;99684.81;;;14.46;40.04
73936;BME280;62287;50.858;0.252;2023-03-24T02:50:14;99684.59;;;14.45;40.00
73936;BME280;62287;50.858;0.252;2023-03-24T02:50:51;99684.72;;;14.50;40.35
73936;BME280;62287;50.858;0.252;2023-03-24T02:51:31;99682.86;;;14.16;40.34
73936;BME280;62287;50.858;0.252;2023-03-24T02:52:06;99685.05;;;14.39;40.21
73936;BME280;62287;50.858;0.252;2023-03-24T02:52:45;99681.78;;;13.95;40.07
73936;BME280;62287;50.858;0.252;2023-03-24T02:53:20;99678.56;;;14.44;39.91
73936;BME280;62287;50.858;0.252;2023-03-24T02:53:59;99681.97;;;14.41;39.94
73936;BME280;62287;50.858;0.252;2023-03-24T02:54:40;99685.28;;;14.57;40.14
73936;BME280;62287;50.858;0.252;2023-03-24T02:55:17;99678.84;;;14.47;39.87
73936;BME280;62287;50.858;0.252;2023-03-24T02:55:53;99681.91;;;14.92;39.82
73936;BME280;62287;50.858;0.252;2023-03-24T02:56:26;99680.73;;;14.56;39.79
73936;BME280;62287;50.858;0.252;2023-03-24T02:57:06;99681.32;;;14.74;39.72
73936;BME280;62287;50.858;0.252;2023-03-24T02:57:42;99684.31;;;15.04;39.73
73936;BME280;62287;50.858;0.252;2023-03-24T02:58:17;99683.97;;;14.61;39.71
73936;BME280;62287;50.858;0.252;2023-03-24T02:58:52;99684.34;;;14.31;39.66
73936;BME280;62287;50.858;0.252;2023-03-24T02:59:30;99683.65;;;14.91;39.68
73936;BME280;62287;50.858;0.252;2023-03-24T03:00:08;99684.26;;;14.22;39.72
73936;BME280;62287;50.858;0.252;2023-03-24T03:00:45;99689.95;;;14.90;39.75
73936;BME280;62287;50.858;0.252;2023-03-24T03:01:19;99687.48;;;14.55;39.75
73936;BME280;62287;50.858;0.252;2023-03-24T03:01:59;99688.21;;;14.75;39.55
73936;BME280;62287;50.858;0.252;2023-03-24T03:02:34;99684.19;;;14.93;39.68
73936;BME280;62287;50.858;0.252;2023-03-24T03:03:10;99688.26;;;14.58;39.67
73936;BME280;62287;50.858;0.252;2023-03-24T03:03:48;99688.16;;;14.64;39.56
73936;BME280;62287;50.858;0.252;2023-03-24T03:04:24;99686.22;;;14.93;39.67
73936;BME280;62287;50.858;0.252;2023-03-24T03:05:00;99691.81;;;14.68;39.80
73936;BME280;62287;50.858;0.252;2023-03-24T03:05:35;99681.91;;;13.96;39.90